Time;durP1;ratioP1;P1;durP2;ratioP2;P2;SDS_P1;SDS_P2;PMS_P1;PMS_P2;Temp;Humidity;BMP_temperature;BMP_pressure;BME280_temperature;BME280_humidity;BME280_pressure;Samples;Min_cycle;Max_cycle;Signal;HPM_P1;HPM_P2
2021/07/13 00:00:24;;;;;;;;;9.00;7.00;;;;;;;;5004027;28;8991;-90
2021/07/13 00:02:52;;;;;;;;;8.50;8.50;;;;;;;;5004626;28;8889;-91
2021/07/13 00:05:20;;;;;;;;;5.00;5.00;;;;;;;;4987994;28;8881;-85
2021/07/13 00:07:49;;;;;;;;;7.75;7.50;;;;;;;;5005248;28;8872;-88
2021/07/13 00:10:20;;;;;;;;;7.00;7.00;;;;;;;;5006338;28;8890;-86
2021/07/13 00:12:47;;;;;;;;;6.50;6.50;;;;;;;;5004643;28;8991;-89
2021/07/13 00:15:18;;;;;;;;;7.00;6.75;;;;;;;;5005804;28;9718;-85
2021/07/13 00:17:45;;;;;;;;;6.25;6.25;;;;;;;;5009715;28;8862;-90
2021/07/13 00:20:15;;;;;;;;;7.25;7.25;;;;;;;;5010927;28;9009;-87
2021/07/13 00:22:42;;;;;;;;;5.75;5.75;;;;;;;;5016941;28;8839;-86
2021/07/13 00:25:11;;;;;;;;;5.00;5.00;;;;;;;;5007364;28;8887;-92
2021/07/13 00:27:40;;;;;;;;;6.50;5.25;;;;;;;;5010932;28;8945;-87
2021/07/13 00:30:09;;;;;;;;;4.50;4.50;;;;;;;;5015221;28;9752;-86
2021/07/13 00:32:36;;;;;;;;;5.50;5.50;;;;;;;;5009005;28;9005;-85
2021/07/13 00:35:04;;;;;;;;;6.00;6.00;;;;;;;;5007125;28;8958;-83
2021/07/13 00:37:31;;;;;;;;;5.50;5.50;;;;;;;;5005870;28;8974;-82
2021/07/13 00:39:59;;;;;;;;;5.00;3.00;;;;;;;;5003623;28;8858;-89
2021/07/13 00:42:26;;;;;;;;;7.00;7.00;;;;;;;;5005233;28;9669;-91
2021/07/13 00:44:55;;;;;;;;;5.00;5.00;;;;;;;;5005631;28;9759;-89
2021/07/13 00:47:23;;;;;;;;;7.50;6.00;;;;;;;;5003801;28;8894;-91
2021/07/13 00:49:51;;;;;;;;;7.75;6.00;;;;;;;;5020919;28;8872;-90
2021/07/13 00:52:19;;;;;;;;;6.75;5.25;;;;;;;;5003093;28;9202;-84
2021/07/13 00:54:49;;;;;;;;;6.00;6.00;;;;;;;;5015942;28;8869;-89
2021/07/13 00:57:19;;;;;;;;;6.75;5.00;;;;;;;;5009813;28;8913;-87
2021/07/13 00:59:47;;;;;;;;;6.00;6.00;;;;;;;;5006667;28;9039;-88
2021/07/13 01:02:18;;;;;;;;;7.00;6.25;;;;;;;;5005916;28;9776;-88
2021/07/13 01:04:48;;;;;;;;;5.75;5.00;;;;;;;;5002769;28;8899;-89
2021/07/13 01:07:19;;;;;;;;;5.00;5.00;;;;;;;;5008279;28;8883;-90
2021/07/13 01:09:55;;;;;;;;;8.25;7.00;;;;;;;;5010894;28;9487;-83
2021/07/13 01:12:31;;;;;;;;;6.75;6.00;;;;;;;;5002875;28;8887;-90
2021/07/13 01:14:59;;;;;;;;;11.00;9.00;;;;;;;;5004549;28;9002;-86
2021/07/13 01:17:35;;;;;;;;;9.25;8.00;;;;;;;;5010781;28;8886;-90
2021/07/13 01:20:33;;;;;;;;;8.50;7.25;;;;;;;;5011050;28;9002;-82
2021/07/13 01:23:09;;;;;;;;;10.00;9.50;;;;;;;;5004356;28;8875;-84
2021/07/13 01:25:43;;;;;;;;;9.25;6.75;;;;;;;;5004078;28;8890;-85
2021/07/13 01:28:16;;;;;;;;;8.00;8.00;;;;;;;;5015869;28;8877;-88
2021/07/13 01:30:46;;;;;;;;;8.00;8.00;;;;;;;;5004542;28;8789;-89
2021/07/13 01:33:18;;;;;;;;;11.75;9.25;;;;;;;;5021295;28;8979;-85
2021/07/13 01:35:50;;;;;;;;;11.50;9.00;;;;;;;;5022717;28;8876;-87
2021/07/13 01:38:18;;;;;;;;;12.75;12.25;;;;;;;;5024057;28;8904;-81
2021/07/13 01:40:49;;;;;;;;;16.25;13.75;;;;;;;;5028310;28;8912;-82
2021/07/13 01:43:18;;;;;;;;;14.50;14.50;;;;;;;;5027068;28;8885;-91
2021/07/13 01:45:46;;;;;;;;;11.50;9.75;;;;;;;;5027479;28;8863;-90
2021/07/13 01:48:14;;;;;;;;;13.75;13.75;;;;;;;;5029222;28;8916;-93
2021/07/13 01:50:49;;;;;;;;;17.00;14.75;;;;;;;;5027906;28;8914;-88
2021/07/13 01:53:17;;;;;;;;;17.50;16.50;;;;;;;;5028183;28;8968;-92
2021/07/13 01:55:45;;;;;;;;;17.75;17.00;;;;;;;;5028755;28;9010;-89
2021/07/13 01:58:13;;;;;;;;;19.50;16.50;;;;;;;;5009408;28;8904;-91
2021/07/13 02:00:44;;;;;;;;;20.50;16.25;;;;;;;;5026454;28;8811;-86
2021/07/13 02:03:12;;;;;;;;;20.00;16.00;;;;;;;;5025209;28;8973;-87
2021/07/13 02:05:40;;;;;;;;;15.25;13.25;;;;;;;;5026168;28;8879;-96
2021/07/13 02:08:08;;;;;;;;;20.00;17.00;;;;;;;;5028208;28;9079;-94
2021/07/13 02:10:36;;;;;;;;;18.75;18.75;;;;;;;;5026137;28;8888;-92
2021/07/13 02:13:06;;;;;;;;;18.00;16.50;;;;;;;;5026736;28;8866;-90
2021/07/13 02:15:34;;;;;;;;;22.75;19.00;;;;;;;;5025289;28;8884;-89
2021/07/13 02:18:02;;;;;;;;;19.75;17.25;;;;;;;;5028373;28;9004;-89
2021/07/13 02:20:30;;;;;;;;;17.50;17.50;;;;;;;;5030090;28;8874;-84
2021/07/13 02:22:57;;;;;;;;;16.25;15.75;;;;;;;;5032643;28;8991;-83
2021/07/13 02:25:25;;;;;;;;;16.25;16.25;;;;;;;;4999373;28;9660;-89
2021/07/13 02:28:01;;;;;;;;;20.00;19.00;;;;;;;;5033601;28;8841;-91
2021/07/13 02:30:29;;;;;;;;;20.75;19.75;;;;;;;;5012144;28;8789;-88
2021/07/13 02:33:04;;;;;;;;;17.50;17.50;;;;;;;;5029522;28;8922;-90
2021/07/13 02:35:40;;;;;;;;;20.25;16.25;;;;;;;;5029380;28;9007;-80
2021/07/13 02:38:09;;;;;;;;;21.00;18.00;;;;;;;;5027304;28;8882;-87
2021/07/13 02:40:37;;;;;;;;;19.25;16.50;;;;;;;;5026130;28;8952;-84
2021/07/13 02:43:05;;;;;;;;;20.75;19.00;;;;;;;;5027148;28;8985;-90
2021/07/13 02:45:33;;;;;;;;;20.50;19.50;;;;;;;;5024652;28;8877;-90
2021/07/13 02:48:00;;;;;;;;;21.25;19.25;;;;;;;;5024199;28;9702;-85
2021/07/13 02:50:31;;;;;;;;;17.75;16.75;;;;;;;;5025040;28;8877;-82
2021/07/13 02:52:59;;;;;;;;;21.75;21.50;;;;;;;;5026469;28;9004;-82
2021/07/13 02:55:27;;;;;;;;;26.50;22.50;;;;;;;;5026423;28;8853;-85
2021/07/13 02:57:57;;;;;;;;;26.00;21.50;;;;;;;;5026663;28;8886;-89
2021/07/13 03:00:25;;;;;;;;;24.25;22.25;;;;;;;;5024521;28;8957;-91
2021/07/13 03:02:53;;;;;;;;;28.50;25.00;;;;;;;;5025191;28;9782;-93
2021/07/13 03:05:23;;;;;;;;;18.75;17.50;;;;;;;;5032835;28;8968;-96
2021/07/13 03:07:53;;;;;;;;;26.50;25.00;;;;;;;;5036238;28;8860;-80
2021/07/13 03:10:21;;;;;;;;;27.50;26.75;;;;;;;;5032596;28;8869;-88
2021/07/13 03:12:49;;;;;;;;;31.25;27.50;;;;;;;;5027273;28;8871;-86
2021/07/13 03:15:19;;;;;;;;;28.25;25.25;;;;;;;;5015310;28;8967;-88
2021/07/13 03:17:47;;;;;;;;;33.00;28.50;;;;;;;;5024377;28;8852;-89
2021/07/13 03:20:14;;;;;;;;;26.50;24.25;;;;;;;;5027149;28;8885;-93
2021/07/13 03:22:47;;;;;;;;;26.50;22.50;;;;;;;;5026440;28;8993;-90
2021/07/13 03:25:19;;;;;;;;;27.50;23.25;;;;;;;;5025329;28;8873;-93
2021/07/13 03:27:46;;;;;;;;;31.50;30.25;;;;;;;;5028490;28;8872;-82
2021/07/13 03:30:15;;;;;;;;;31.25;29.00;;;;;;;;5025504;28;8971;-84
2021/07/13 03:32:43;;;;;;;;;23.50;22.50;;;;;;;;5025413;28;8896;-92
2021/07/13 03:35:11;;;;;;;;;27.00;23.00;;;;;;;;5026131;28;8899;-82
2021/07/13 03:37:39;;;;;;;;;28.50;26.25;;;;;;;;5024219;28;9607;-87
2021/07/13 03:40:09;;;;;;;;;30.50;27.00;;;;;;;;5013405;28;8951;-88
2021/07/13 03:42:38;;;;;;;;;32.75;26.75;;;;;;;;5021453;28;9654;-87
2021/07/13 03:45:06;;;;;;;;;32.25;31.00;;;;;;;;5024680;28;8989;-92
2021/07/13 03:47:34;;;;;;;;;29.00;27.00;;;;;;;;5025031;28;9034;-93
2021/07/13 03:50:02;;;;;;;;;31.75;27.50;;;;;;;;5026762;28;8869;-92
2021/07/13 03:52:29;;;;;;;;;30.50;29.50;;;;;;;;5028261;28;8959;-92
2021/07/13 03:54:57;;;;;;;;;29.50;28.50;;;;;;;;5027857;28;8979;-86
2021/07/13 03:57:24;;;;;;;;;28.50;27.25;;;;;;;;5028597;28;8901;-85
2021/07/13 03:59:53;;;;;;;;;35.00;30.00;;;;;;;;5020618;28;8991;-81
2021/07/13 04:02:20;;;;;;;;;24.25;23.75;;;;;;;;5025536;28;8892;-84
2021/07/13 04:04:47;;;;;;;;;31.25;28.25;;;;;;;;5025596;28;8876;-92
2021/07/13 04:07:15;;;;;;;;;22.50;22.50;;;;;;;;5024302;28;8850;-88
2021/07/13 04:09:42;;;;;;;;;24.75;24.75;;;;;;;;5025612;28;8872;-94
2021/07/13 04:12:10;;;;;;;;;27.00;26.50;;;;;;;;5025069;28;8887;-91
2021/07/13 04:14:38;;;;;;;;;27.75;24.25;;;;;;;;5024626;28;8892;-88
2021/07/13 04:17:07;;;;;;;;;28.50;27.25;;;;;;;;5023542;28;8847;-81
2021/07/13 04:19:34;;;;;;;;;28.75;25.00;;;;;;;;5023340;28;8880;-81
2021/07/13 04:22:02;;;;;;;;;26.00;23.75;;;;;;;;5021682;28;8864;-80
2021/07/13 04:24:29;;;;;;;;;26.25;24.75;;;;;;;;5024396;28;8865;-83
2021/07/13 04:26:57;;;;;;;;;27.00;23.00;;;;;;;;5020231;28;8987;-81
2021/07/13 04:29:24;;;;;;;;;28.50;23.00;;;;;;;;5022252;28;8880;-84
2021/07/13 04:31:51;;;;;;;;;22.25;22.25;;;;;;;;5006731;28;8809;-80
2021/07/13 04:34:20;;;;;;;;;20.25;19.75;;;;;;;;5007096;28;8873;-80
2021/07/13 04:36:47;;;;;;;;;31.50;27.25;;;;;;;;5022294;28;8897;-81
2021/07/13 04:39:15;;;;;;;;;30.50;25.50;;;;;;;;5023012;28;8907;-81
2021/07/13 04:41:42;;;;;;;;;23.00;22.00;;;;;;;;5024312;28;8852;-82
2021/07/13 04:44:09;;;;;;;;;27.75;26.00;;;;;;;;5023088;28;8938;-80
2021/07/13 04:46:36;;;;;;;;;39.00;34.00;;;;;;;;5022292;28;8870;-81
2021/07/13 04:49:04;;;;;;;;;26.25;23.00;;;;;;;;5023545;28;8992;-80
2021/07/13 04:51:32;;;;;;;;;23.75;22.25;;;;;;;;5022199;28;8865;-81
2021/07/13 04:54:00;;;;;;;;;25.50;24.00;;;;;;;;5023817;28;8867;-82
2021/07/13 04:56:27;;;;;;;;;27.75;27.75;;;;;;;;5022227;28;8868;-82
2021/07/13 04:58:54;;;;;;;;;25.25;23.00;;;;;;;;5021225;28;8994;-82
2021/07/13 05:01:21;;;;;;;;;28.50;27.75;;;;;;;;5022118;28;8813;-81
2021/07/13 05:03:49;;;;;;;;;27.75;23.00;;;;;;;;5022734;28;8981;-80
2021/07/13 05:06:16;;;;;;;;;20.75;20.75;;;;;;;;5023088;28;8865;-84
2021/07/13 05:08:45;;;;;;;;;29.50;28.50;;;;;;;;5022329;28;8876;-84
2021/07/13 05:11:12;;;;;;;;;21.75;20.25;;;;;;;;5015540;28;8861;-81
2021/07/13 05:13:39;;;;;;;;;23.50;23.50;;;;;;;;4991035;28;9561;-80
2021/07/13 05:16:07;;;;;;;;;23.00;23.00;;;;;;;;5011398;28;8886;-82
2021/07/13 05:18:35;;;;;;;;;33.50;30.00;;;;;;;;5027970;28;8886;-82
2021/07/13 05:21:04;;;;;;;;;27.00;25.25;;;;;;;;5029822;28;8856;-84
2021/07/13 05:23:31;;;;;;;;;24.75;23.25;;;;;;;;5030763;28;8865;-82
2021/07/13 05:26:00;;;;;;;;;25.25;22.75;;;;;;;;5011351;28;8872;-81
2021/07/13 05:28:28;;;;;;;;;27.25;24.75;;;;;;;;5028212;28;9645;-82
2021/07/13 05:30:56;;;;;;;;;28.00;25.00;;;;;;;;5026173;28;8855;-84
2021/07/13 05:33:23;;;;;;;;;19.50;19.50;;;;;;;;4996222;28;9012;-82
2021/07/13 05:35:50;;;;;;;;;24.50;22.00;;;;;;;;5025466;28;8869;-81
2021/07/13 05:38:17;;;;;;;;;25.50;22.50;;;;;;;;5028270;28;9037;-81
2021/07/13 05:40:48;;;;;;;;;27.25;23.75;;;;;;;;5010433;28;8849;-82
2021/07/13 05:43:16;;;;;;;;;25.75;22.75;;;;;;;;5028055;28;8862;-82
2021/07/13 05:45:44;;;;;;;;;25.00;24.00;;;;;;;;5028131;28;8907;-82
2021/07/13 05:48:11;;;;;;;;;20.75;20.50;;;;;;;;5026732;28;9671;-81
2021/07/13 05:50:39;;;;;;;;;30.00;22.50;;;;;;;;5011870;28;8891;-81
2021/07/13 05:53:06;;;;;;;;;27.25;24.00;;;;;;;;5009995;28;8888;-80
2021/07/13 05:55:33;;;;;;;;;31.75;26.25;;;;;;;;5029342;28;8865;-81
2021/07/13 05:58:01;;;;;;;;;26.00;25.75;;;;;;;;5028692;28;8963;-81
2021/07/13 06:00:29;;;;;;;;;30.75;24.00;;;;;;;;5024923;28;8975;-81
2021/07/13 06:02:57;;;;;;;;;24.50;22.75;;;;;;;;5028957;28;9666;-82
2021/07/13 06:05:24;;;;;;;;;21.50;20.25;;;;;;;;5028280;28;8865;-81
2021/07/13 06:07:52;;;;;;;;;27.25;25.00;;;;;;;;5029061;28;8891;-81
2021/07/13 06:10:20;;;;;;;;;32.00;27.50;;;;;;;;5028591;28;8853;-81
2021/07/13 06:12:48;;;;;;;;;26.00;20.25;;;;;;;;5030324;28;8882;-81
2021/07/13 06:15:15;;;;;;;;;26.00;23.00;;;;;;;;5011239;28;8945;-82
2021/07/13 06:17:45;;;;;;;;;24.75;23.50;;;;;;;;5029910;28;8892;-82
2021/07/13 06:20:15;;;;;;;;;25.75;22.50;;;;;;;;5029348;28;8891;-82
2021/07/13 06:22:42;;;;;;;;;21.50;18.50;;;;;;;;5026718;28;9481;-81
2021/07/13 06:25:11;;;;;;;;;27.50;21.00;;;;;;;;5027585;28;8853;-80
2021/07/13 06:27:38;;;;;;;;;25.75;22.50;;;;;;;;5030519;28;8878;-80
2021/07/13 06:30:07;;;;;;;;;28.50;26.25;;;;;;;;5025902;28;8880;-82
2021/07/13 06:32:35;;;;;;;;;30.75;22.50;;;;;;;;5023296;28;9753;-83
2021/07/13 06:35:04;;;;;;;;;24.00;22.25;;;;;;;;5025377;28;8923;-86
2021/07/13 06:37:31;;;;;;;;;26.75;24.50;;;;;;;;5026433;28;8868;-83
2021/07/13 06:39:59;;;;;;;;;23.50;20.50;;;;;;;;5026052;28;8861;-83
2021/07/13 06:42:26;;;;;;;;;24.50;21.75;;;;;;;;5022415;28;8879;-82
2021/07/13 06:44:54;;;;;;;;;17.00;15.00;;;;;;;;5013730;28;8930;-82
2021/07/13 06:47:21;;;;;;;;;21.25;18.75;;;;;;;;5026700;28;9789;-83
2021/07/13 06:49:48;;;;;;;;;15.75;14.25;;;;;;;;5023228;28;8930;-82
2021/07/13 06:52:17;;;;;;;;;18.75;18.75;;;;;;;;5026026;28;8861;-82
2021/07/13 06:54:45;;;;;;;;;19.75;17.00;;;;;;;;5026741;28;8876;-82
2021/07/13 06:57:12;;;;;;;;;14.75;13.00;;;;;;;;5016720;28;8883;-81
2021/07/13 06:59:39;;;;;;;;;19.75;18.50;;;;;;;;5025921;28;8850;-77
2021/07/13 07:02:07;;;;;;;;;20.00;20.00;;;;;;;;5023963;28;8849;-79
2021/07/13 07:04:34;;;;;;;;;20.75;19.00;;;;;;;;5026227;28;8862;-79
2021/07/13 07:07:01;;;;;;;;;17.75;15.75;;;;;;;;5022300;28;8890;-79
2021/07/13 07:09:30;;;;;;;;;19.75;16.00;;;;;;;;5025820;28;8880;-77
2021/07/13 07:11:57;;;;;;;;;13.25;12.25;;;;;;;;5023210;28;8865;-77
2021/07/13 07:14:24;;;;;;;;;14.25;14.25;;;;;;;;5014344;28;8983;-80
2021/07/13 07:16:56;;;;;;;;;15.75;15.75;;;;;;;;5014214;28;8868;-76
2021/07/13 07:19:23;;;;;;;;;12.25;11.50;;;;;;;;5024169;28;8860;-76
2021/07/13 07:21:50;;;;;;;;;11.75;11.25;;;;;;;;5024052;28;8868;-80
2021/07/13 07:24:17;;;;;;;;;13.25;13.25;;;;;;;;5012974;28;8983;-80
2021/07/13 07:26:46;;;;;;;;;13.75;11.75;;;;;;;;5024352;28;8853;-78
2021/07/13 07:29:13;;;;;;;;;14.50;14.25;;;;;;;;5019830;28;8861;-78
2021/07/13 07:31:40;;;;;;;;;12.75;12.75;;;;;;;;5023892;28;8813;-80
2021/07/13 07:34:08;;;;;;;;;19.50;13.25;;;;;;;;5007173;28;8967;-80
2021/07/13 07:36:35;;;;;;;;;15.00;12.50;;;;;;;;5024178;28;8893;-74
2021/07/13 07:39:03;;;;;;;;;14.00;14.00;;;;;;;;5025534;28;8863;-80
2021/07/13 07:41:30;;;;;;;;;11.00;11.00;;;;;;;;5024293;28;8952;-80
2021/07/13 07:43:59;;;;;;;;;13.00;13.00;;;;;;;;5024552;28;8914;-79
2021/07/13 07:46:26;;;;;;;;;10.80;10.00;;;;;;;;5024426;28;8874;-80
2021/07/13 07:48:54;;;;;;;;;9.60;9.60;;;;;;;;5021327;28;8853;-77
2021/07/13 07:51:21;;;;;;;;;10.75;10.75;;;;;;;;5022988;28;8987;-80
2021/07/13 07:53:49;;;;;;;;;15.00;10.60;;;;;;;;5023187;28;8858;-78
2021/07/13 07:56:16;;;;;;;;;13.20;11.80;;;;;;;;5024129;28;8845;-77
2021/07/13 07:58:43;;;;;;;;;10.80;10.80;;;;;;;;5023138;28;8861;-78
2021/07/13 08:01:11;;;;;;;;;9.40;9.40;;;;;;;;5024009;28;8933;-80
2021/07/13 08:03:39;;;;;;;;;11.80;11.80;;;;;;;;5021220;28;8851;-77
2021/07/13 08:06:06;;;;;;;;;11.00;11.00;;;;;;;;5024039;28;9697;-80
2021/07/13 08:08:34;;;;;;;;;10.00;9.40;;;;;;;;5018943;28;8853;-78
2021/07/13 08:11:01;;;;;;;;;8.00;8.00;;;;;;;;5023693;28;8955;-76
2021/07/13 08:13:28;;;;;;;;;8.00;8.00;;;;;;;;5023599;28;9615;-80
2021/07/13 08:15:57;;;;;;;;;6.60;6.40;;;;;;;;5012113;28;8906;-76
2021/07/13 08:18:26;;;;;;;;;8.00;8.00;;;;;;;;5022248;28;8873;-79
2021/07/13 08:20:53;;;;;;;;;11.60;10.00;;;;;;;;5023240;28;9705;-78
2021/07/13 08:23:20;;;;;;;;;12.20;12.20;;;;;;;;5023634;28;8860;-76
2021/07/13 08:25:47;;;;;;;;;7.40;7.40;;;;;;;;5023839;28;8841;-76
2021/07/13 08:28:14;;;;;;;;;6.80;6.80;;;;;;;;5022845;28;8880;-76
2021/07/13 08:30:42;;;;;;;;;5.60;5.60;;;;;;;;5018101;28;8817;-76
2021/07/13 08:33:09;;;;;;;;;7.00;7.00;;;;;;;;5010833;28;8889;-75
2021/07/13 08:35:37;;;;;;;;;6.40;5.80;;;;;;;;5016347;28;8999;-75
2021/07/13 08:38:05;;;;;;;;;5.20;4.00;;;;;;;;5023136;28;8854;-77
2021/07/13 08:40:33;;;;;;;;;7.00;7.00;;;;;;;;5024213;28;8845;-75
2021/07/13 08:43:00;;;;;;;;;6.40;6.20;;;;;;;;5022183;28;9685;-76
2021/07/13 08:45:27;;;;;;;;;8.00;8.00;;;;;;;;5023321;28;8984;-76
2021/07/13 08:47:55;;;;;;;;;7.60;7.60;;;;;;;;5023565;28;8853;-76
2021/07/13 08:50:23;;;;;;;;;9.60;9.60;;;;;;;;5023105;28;8884;-76
2021/07/13 08:52:51;;;;;;;;;10.20;10.20;;;;;;;;5023901;28;8849;-75
2021/07/13 08:55:19;;;;;;;;;11.60;11.60;;;;;;;;5019755;28;8885;-77
2021/07/13 08:57:47;;;;;;;;;13.20;13.20;;;;;;;;5023915;28;8988;-77
2021/07/13 09:00:16;;;;;;;;;14.80;13.80;;;;;;;;5022365;28;8873;-77
2021/07/13 09:03:09;;;;;;;;;18.00;18.00;;;;;;;;5005522;28;8904;-75
2021/07/13 09:05:44;;;;;;;;;20.80;19.20;;;;;;;;5022250;28;9658;-77
2021/07/13 09:08:18;;;;;;;;;17.40;15.60;;;;;;;;5022591;28;8880;-77
2021/07/13 09:11:07;;;;;;;;;18.20;18.00;;;;;;;;5023810;28;9505;-81
2021/07/13 09:13:36;;;;;;;;;24.75;20.75;;;;;;;;5020757;28;8857;-77
2021/07/13 09:16:06;;;;;;;;;22.20;22.20;;;;;;;;5022316;28;8886;-78
2021/07/13 09:18:35;;;;;;;;;23.75;23.75;;;;;;;;5022334;28;8902;-78
2021/07/13 09:21:10;;;;;;;;;20.50;20.00;;;;;;;;5019880;28;8865;-79
2021/07/13 09:24:06;;;;;;;;;21.00;18.00;;;;;;;;5016886;28;8945;-82
2021/07/13 09:26:45;;;;;;;;;25.00;23.00;;;;;;;;5022553;28;8983;-77
2021/07/13 09:29:29;;;;;;;;;28.50;26.00;;;;;;;;5009991;28;8864;-78
2021/07/13 09:31:57;;;;;;;;;32.00;27.00;;;;;;;;5010278;28;8795;-77
2021/07/13 09:34:24;;;;;;;;;22.50;21.50;;;;;;;;5022375;28;8955;-75
2021/07/13 09:36:53;;;;;;;;;33.25;29.50;;;;;;;;5003189;28;8880;-78
2021/07/13 09:39:25;;;;;;;;;27.75;24.50;;;;;;;;5003164;28;8869;-79
2021/07/13 09:41:53;;;;;;;;;27.50;27.00;;;;;;;;5022848;28;8892;-78
2021/07/13 09:44:23;;;;;;;;;26.00;24.20;;;;;;;;5023639;28;8872;-80
2021/07/13 09:46:51;;;;;;;;;28.00;26.00;;;;;;;;5006499;28;9015;-78
2021/07/13 09:49:20;;;;;;;;;26.60;25.40;;;;;;;;5023323;28;8849;-83
2021/07/13 09:51:54;;;;;;;;;28.60;26.20;;;;;;;;5022742;28;8877;-80
2021/07/13 09:54:32;;;;;;;;;25.20;25.20;;;;;;;;5005412;28;8896;-80
2021/07/13 09:56:59;;;;;;;;;26.80;26.80;;;;;;;;5023158;28;8868;-77
2021/07/13 09:59:27;;;;;;;;;26.60;26.60;;;;;;;;5022549;28;8888;-78
2021/07/13 10:01:54;;;;;;;;;34.80;29.20;;;;;;;;5025045;28;8802;-77
2021/07/13 10:04:22;;;;;;;;;29.60;29.40;;;;;;;;5026285;28;8911;-77
2021/07/13 10:06:52;;;;;;;;;26.00;24.40;;;;;;;;5027221;28;8893;-79
2021/07/13 10:09:21;;;;;;;;;50.25;40.50;;;;;;;;5025357;28;9015;-79
2021/07/13 10:11:50;;;;;;;;;83.00;78.50;;;;;;;;5021683;28;8877;-76
2021/07/13 10:14:19;;;;;;;;;175.33;170.00;;;;;;;;5028519;28;11643;-80
2021/07/13 10:16:47;;;;;;;;;1323.33;1153.83;;;;;;;;5029635;28;8881;-79
2021/07/13 10:19:15;;;;;;;;;66.00;51.75;;;;;;;;5029878;28;8900;-81
2021/07/13 10:21:46;;;;;;;;;1939.33;1583.83;;;;;;;;5028310;28;9663;-80
2021/07/13 10:24:14;;;;;;;;;1472.00;1159.33;;;;;;;;5027626;28;11661;-77
2021/07/13 10:26:47;;;;;;;;;1015.60;877.20;;;;;;;;5001580;28;8883;-77
2021/07/13 10:29:39;;;;;;;;;149.80;137.60;;;;;;;;5026694;28;8886;-77
2021/07/13 10:32:09;;;;;;;;;64.00;51.75;;;;;;;;5024156;28;8949;-78
2021/07/13 10:34:50;;;;;;;;;29.60;27.60;;;;;;;;5019382;28;8960;-79
2021/07/13 10:37:35;;;;;;;;;28.40;25.80;;;;;;;;5023059;28;8875;-82
2021/07/13 10:40:07;;;;;;;;;27.40;24.00;;;;;;;;5023294;28;9611;-79
2021/07/13 10:42:53;;;;;;;;;26.20;24.60;;;;;;;;5025423;28;9457;-81
2021/07/13 10:45:26;;;;;;;;;28.00;27.00;;;;;;;;5024902;28;8898;-80
2021/07/13 10:48:19;;;;;;;;;31.00;29.00;;;;;;;;5024926;28;8954;-79
2021/07/13 10:50:52;;;;;;;;;29.00;27.40;;;;;;;;5021211;28;8886;-80
2021/07/13 10:53:30;;;;;;;;;28.40;28.20;;;;;;;;5025091;28;8898;-80
2021/07/13 10:56:05;;;;;;;;;29.80;29.40;;;;;;;;5021337;28;8886;-80
2021/07/13 10:58:42;;;;;;;;;30.20;27.60;;;;;;;;5023096;28;8829;-80
2021/07/13 11:01:16;;;;;;;;;34.60;32.00;;;;;;;;5022200;28;8997;-81
2021/07/13 11:03:54;;;;;;;;;29.60;26.40;;;;;;;;5022562;28;8909;-81
2021/07/13 11:06:39;;;;;;;;;27.80;26.20;;;;;;;;5021024;28;9544;-79
2021/07/13 11:09:21;;;;;;;;;29.00;28.80;;;;;;;;5023671;28;8884;-79
2021/07/13 11:11:49;;;;;;;;;34.60;29.80;;;;;;;;5019968;28;8853;-79
2021/07/13 11:14:16;;;;;;;;;33.80;30.00;;;;;;;;5019016;28;8888;-80
2021/07/13 11:16:49;;;;;;;;;32.00;30.00;;;;;;;;5023595;28;8837;-80
2021/07/13 11:19:17;;;;;;;;;28.00;27.80;;;;;;;;5024957;28;8864;-78
2021/07/13 11:21:46;;;;;;;;;34.00;29.00;;;;;;;;5025076;28;8849;-79
2021/07/13 11:24:15;;;;;;;;;38.80;32.40;;;;;;;;5023380;28;8881;-85
2021/07/13 11:26:45;;;;;;;;;34.40;30.60;;;;;;;;5022700;28;8849;-81
2021/07/13 11:29:20;;;;;;;;;32.00;29.20;;;;;;;;5024618;28;9611;-78
2021/07/13 11:31:52;;;;;;;;;31.00;30.20;;;;;;;;5023819;28;8840;-81
2021/07/13 11:34:22;;;;;;;;;36.20;32.40;;;;;;;;5025716;28;9696;-78
2021/07/13 11:36:50;;;;;;;;;40.50;34.25;;;;;;;;5024675;28;8874;-78
2021/07/13 11:39:23;;;;;;;;;39.25;33.00;;;;;;;;5024699;28;8902;-80
2021/07/13 11:41:53;;;;;;;;;39.00;33.25;;;;;;;;5014604;28;8872;-81
2021/07/13 11:44:21;;;;;;;;;42.75;35.00;;;;;;;;5024443;28;8877;-81
2021/07/13 11:46:51;;;;;;;;;46.50;38.00;;;;;;;;5024552;28;9721;-80
2021/07/13 11:49:19;;;;;;;;;49.75;39.25;;;;;;;;5024606;28;9635;-75
2021/07/13 11:51:54;;;;;;;;;44.75;37.25;;;;;;;;5027126;28;8876;-81
2021/07/13 11:54:23;;;;;;;;;42.50;35.25;;;;;;;;5023662;28;8884;-79
2021/07/13 11:56:52;;;;;;;;;47.50;36.75;;;;;;;;5019803;28;8864;-80
2021/07/13 11:59:20;;;;;;;;;49.00;39.25;;;;;;;;5024688;28;8847;-80
2021/07/13 12:01:53;;;;;;;;;45.75;38.75;;;;;;;;5023926;28;8903;-80
2021/07/13 12:04:22;;;;;;;;;46.25;39.50;;;;;;;;5019329;28;8987;-80
2021/07/13 12:06:52;;;;;;;;;47.00;39.50;;;;;;;;5023198;28;8880;-82
2021/07/13 12:09:27;;;;;;;;;47.75;40.25;;;;;;;;5025199;28;8967;-88
2021/07/13 12:11:56;;;;;;;;;51.75;41.75;;;;;;;;5025389;28;8885;-83
2021/07/13 12:14:25;;;;;;;;;50.50;41.75;;;;;;;;5024882;28;8868;-85
2021/07/13 12:16:57;;;;;;;;;48.75;38.25;;;;;;;;5001198;28;9976;-83
2021/07/13 12:19:26;;;;;;;;;49.50;39.50;;;;;;;;5022758;28;8933;-82
2021/07/13 12:21:55;;;;;;;;;44.25;38.00;;;;;;;;5025114;28;8962;-78
2021/07/13 12:24:30;;;;;;;;;46.75;38.75;;;;;;;;5022286;28;8853;-82
2021/07/13 12:26:59;;;;;;;;;50.25;41.00;;;;;;;;5020159;28;8876;-83
2021/07/13 12:29:37;;;;;;;;;49.00;40.50;;;;;;;;5006723;28;9610;-84
2021/07/13 12:32:07;;;;;;;;;51.50;43.00;;;;;;;;4995384;28;8807;-82
2021/07/13 12:34:41;;;;;;;;;51.00;41.00;;;;;;;;5011909;28;8860;-83
2021/07/13 12:37:14;;;;;;;;;51.25;42.25;;;;;;;;5003900;28;8862;-79
2021/07/13 12:39:44;;;;;;;;;53.50;43.50;;;;;;;;4998922;28;8885;-84
2021/07/13 12:42:13;;;;;;;;;52.00;42.50;;;;;;;;5003154;28;8863;-84
2021/07/13 12:44:45;;;;;;;;;46.50;39.25;;;;;;;;5009065;28;8890;-81
2021/07/13 12:47:27;;;;;;;;;49.75;41.75;;;;;;;;5017436;28;8860;-86
2021/07/13 12:50:10;;;;;;;;;52.50;43.00;;;;;;;;5013822;28;8904;-78
2021/07/13 12:52:40;;;;;;;;;50.00;42.00;;;;;;;;5008262;28;8891;-90
2021/07/13 12:55:10;;;;;;;;;51.25;42.75;;;;;;;;5020980;28;9646;-82
2021/07/13 12:57:38;;;;;;;;;53.25;43.25;;;;;;;;4997840;28;9005;-90
2021/07/13 13:00:13;;;;;;;;;42.50;37.00;;;;;;;;5009763;28;8839;-94
2021/07/13 13:02:42;;;;;;;;;53.00;41.25;;;;;;;;5008548;28;8921;-87
2021/07/13 13:05:25;;;;;;;;;56.75;44.50;;;;;;;;5019249;28;8902;-87
2021/07/13 13:08:03;;;;;;;;;59.75;46.50;;;;;;;;5016797;28;8857;-87
2021/07/13 13:10:31;;;;;;;;;56.25;45.25;;;;;;;;5005828;28;9676;-87
2021/07/13 13:12:59;;;;;;;;;46.75;39.50;;;;;;;;5004860;28;8886;-86
2021/07/13 13:15:27;;;;;;;;;52.75;42.75;;;;;;;;4999363;28;8891;-82
2021/07/13 13:17:57;;;;;;;;;50.25;42.25;;;;;;;;5007962;28;8990;-87
2021/07/13 13:20:26;;;;;;;;;56.25;46.25;;;;;;;;5025612;28;8982;-91
2021/07/13 13:22:54;;;;;;;;;55.25;44.75;;;;;;;;5010239;28;9621;-80
2021/07/13 13:25:23;;;;;;;;;60.00;48.50;;;;;;;;5012651;28;8897;-89
2021/07/13 13:27:50;;;;;;;;;53.00;42.75;;;;;;;;5015115;28;8868;-83
2021/07/13 13:30:19;;;;;;;;;53.25;45.00;;;;;;;;5003688;28;8890;-83
2021/07/13 13:32:46;;;;;;;;;56.25;46.00;;;;;;;;5005193;28;8897;-87
2021/07/13 13:35:20;;;;;;;;;53.25;44.50;;;;;;;;5007132;28;8856;-81
2021/07/13 13:37:50;;;;;;;;;54.75;45.00;;;;;;;;5008210;28;8895;-79
2021/07/13 13:40:18;;;;;;;;;54.50;45.50;;;;;;;;5000612;28;8875;-82
2021/07/13 13:42:46;;;;;;;;;57.75;47.00;;;;;;;;4988963;28;9025;-79
2021/07/13 13:45:13;;;;;;;;;52.25;43.75;;;;;;;;5009112;28;8891;-88
2021/07/13 13:47:41;;;;;;;;;53.75;42.50;;;;;;;;5008168;28;8946;-93
2021/07/13 13:50:09;;;;;;;;;53.75;44.25;;;;;;;;5008239;28;8857;-80
2021/07/13 13:52:40;;;;;;;;;55.50;44.75;;;;;;;;5008920;28;8869;-82
2021/07/13 13:55:08;;;;;;;;;54.50;44.00;;;;;;;;5007836;28;8875;-85
2021/07/13 13:57:36;;;;;;;;;52.25;43.00;;;;;;;;5009094;28;8896;-90
2021/07/13 14:00:06;;;;;;;;;52.50;42.25;;;;;;;;5007543;28;8891;-84
2021/07/13 14:02:33;;;;;;;;;57.00;45.75;;;;;;;;5008510;28;8942;-85
2021/07/13 14:05:00;;;;;;;;;55.75;47.25;;;;;;;;5008197;28;8912;-85
2021/07/13 14:07:28;;;;;;;;;55.50;45.50;;;;;;;;5007418;28;8926;-80
2021/07/13 14:09:56;;;;;;;;;56.75;45.50;;;;;;;;5008051;28;8876;-85
2021/07/13 14:12:24;;;;;;;;;45.75;37.50;;;;;;;;5007154;28;8892;-86
2021/07/13 14:14:55;;;;;;;;;41.75;37.00;;;;;;;;5011744;28;8861;-83
2021/07/13 14:17:22;;;;;;;;;42.00;37.00;;;;;;;;5007060;28;8941;-85
2021/07/13 14:19:50;;;;;;;;;40.50;36.50;;;;;;;;5008523;28;8874;-85
2021/07/13 14:22:17;;;;;;;;;45.75;37.25;;;;;;;;5007422;28;8867;-89
2021/07/13 14:24:45;;;;;;;;;45.75;38.75;;;;;;;;5008173;28;8867;-89
2021/07/13 14:27:14;;;;;;;;;50.00;40.50;;;;;;;;4980898;28;8866;-88
2021/07/13 14:29:42;;;;;;;;;50.50;40.25;;;;;;;;5026785;28;9613;-82
2021/07/13 14:32:09;;;;;;;;;46.75;40.25;;;;;;;;5009784;28;8805;-82
2021/07/13 14:34:37;;;;;;;;;47.75;40.25;;;;;;;;5026616;28;8864;-82
2021/07/13 14:37:04;;;;;;;;;44.00;37.25;;;;;;;;5027049;28;8896;-83
2021/07/13 14:39:32;;;;;;;;;47.00;39.00;;;;;;;;5024336;28;8895;-84
2021/07/13 14:41:59;;;;;;;;;49.75;39.50;;;;;;;;5031492;28;8979;-84
2021/07/13 14:44:28;;;;;;;;;48.50;40.00;;;;;;;;5032058;28;8853;-79
2021/07/13 14:46:55;;;;;;;;;49.50;41.75;;;;;;;;5030333;28;8905;-88